Time;durP1;ratioP1;P1;durP2;ratioP2;P2;SDS_P1;SDS_P2;PMS_P1;PMS_P2;Temp;Humidity;BMP_temperature;BMP_pressure;BME280_temperature;BME280_humidity;BME280_pressure;Samples;Min_cycle;Max_cycle;Signal;HPM_P1;HPM_P2
2022/12/11 00:00:00;;;;;;;127.47;29.60;;;-1.50;99.90;;;;;;5001542;28;20599;-57
2022/12/11 00:02:27;;;;;;;150.43;32.08;;;-1.60;99.90;;;;;;5002251;28;20428;-57
2022/12/11 00:04:53;;;;;;;162.20;31.65;;;-1.50;99.90;;;;;;4997660;28;20077;-56
2022/12/11 00:07:19;;;;;;;145.85;32.95;;;-1.60;99.90;;;;;;5019906;28;20500;-56
2022/12/11 00:09:44;;;;;;;141.95;31.98;;;-1.50;99.90;;;;;;5022667;28;20091;-55
2022/12/11 00:12:10;;;;;;;165.73;33.17;;;-1.50;99.90;;;;;;5023726;28;20045;-56
2022/12/11 00:14:35;;;;;;;157.52;32.47;;;-1.50;99.90;;;;;;5021186;28;20056;-57
2022/12/11 00:17:01;;;;;;;150.57;31.00;;;-1.50;99.90;;;;;;5023037;28;20056;-55
2022/12/11 00:19:27;;;;;;;153.13;31.98;;;-1.50;99.90;;;;;;5019492;28;20037;-56
2022/12/11 00:21:52;;;;;;;115.18;28.73;;;-1.50;99.90;;;;;;5022905;28;20052;-56
2022/12/11 00:24:18;;;;;;;140.02;31.50;;;-1.50;99.90;;;;;;5023012;28;20044;-56
2022/12/11 00:26:43;;;;;;;119.03;29.63;;;-1.40;99.90;;;;;;5023622;28;20050;-57
2022/12/11 00:29:13;;;;;;;101.88;27.23;;;-1.50;99.90;;;;;;5014979;28;20088;-56
2022/12/11 00:31:40;;;;;;;150.20;30.65;;;-1.50;99.90;;;;;;5003571;28;20041;-56
2022/12/11 00:34:06;;;;;;;119.82;29.40;;;-1.40;99.90;;;;;;5013584;28;20116;-57
2022/12/11 00:36:32;;;;;;;148.45;30.42;;;-1.40;99.90;;;;;;5023150;28;20598;-56
2022/12/11 00:38:57;;;;;;;138.55;29.85;;;-1.40;99.90;;;;;;5023306;28;20516;-57
2022/12/11 00:41:23;;;;;;;131.18;29.23;;;-1.40;99.90;;;;;;5023543;28;20103;-56
2022/12/11 00:43:49;;;;;;;120.53;28.20;;;-1.40;99.90;;;;;;5022993;28;20044;-57
2022/12/11 00:46:15;;;;;;;143.20;29.42;;;-1.40;99.90;;;;;;5022536;28;20052;-55
2022/12/11 00:48:40;;;;;;;101.30;26.15;;;-1.30;99.90;;;;;;5022276;28;20456;-56
2022/12/11 00:51:06;;;;;;;120.90;27.42;;;-1.30;99.90;;;;;;5022544;28;20045;-57
2022/12/11 00:53:33;;;;;;;112.30;26.98;;;-1.30;99.90;;;;;;5024831;28;20098;-57
2022/12/11 00:55:58;;;;;;;117.30;27.05;;;-1.30;99.90;;;;;;5027321;28;20128;-57
2022/12/11 00:58:24;;;;;;;101.38;26.70;;;-1.20;99.90;;;;;;5025333;28;20128;-56
2022/12/11 01:00:51;;;;;;;101.47;26.42;;;-1.20;99.90;;;;;;5025530;28;20038;-56
2022/12/11 01:03:17;;;;;;;102.93;25.13;;;-1.20;99.90;;;;;;5027313;28;20125;-56
2022/12/11 01:05:53;;;;;;;105.85;25.40;;;-1.20;99.90;;;;;;5041721;28;20704;-56
2022/12/11 01:08:19;;;;;;;111.70;25.50;;;-1.10;99.90;;;;;;5026775;28;20037;-57
2022/12/11 01:10:45;;;;;;;104.38;24.55;;;-1.10;99.90;;;;;;5009330;28;20071;-55
2022/12/11 01:13:10;;;;;;;109.60;23.98;;;-1.10;99.90;;;;;;5025899;28;20060;-57
2022/12/11 01:15:42;;;;;;;103.20;24.60;;;-1.10;99.90;;;;;;5026915;28;20547;-57
2022/12/11 01:18:12;;;;;;;118.47;24.90;;;-1.10;99.90;;;;;;5023483;28;20543;-57
2022/12/11 01:20:39;;;;;;;121.93;26.52;;;-1.10;99.90;;;;;;5026338;28;20041;-55
2022/12/11 01:23:05;;;;;;;121.85;26.45;;;-1.00;99.90;;;;;;5025586;28;20080;-57
2022/12/11 01:25:34;;;;;;;115.28;25.45;;;-1.00;99.90;;;;;;5027013;28;20256;-56
2022/12/11 01:28:00;;;;;;;121.57;26.15;;;-1.00;99.90;;;;;;5023752;28;20038;-56
2022/12/11 01:30:25;;;;;;;109.40;23.63;;;-1.00;99.90;;;;;;5026296;28;20036;-57
2022/12/11 01:32:51;;;;;;;102.93;25.00;;;-1.00;99.90;;;;;;5024581;28;20805;-60
2022/12/11 01:35:18;;;;;;;108.68;24.15;;;-1.00;99.90;;;;;;5025960;28;20045;-58
2022/12/11 01:37:44;;;;;;;118.28;25.52;;;-1.00;99.90;;;;;;5025227;28;20037;-56
2022/12/11 01:40:15;;;;;;;130.48;24.80;;;-1.00;99.90;;;;;;5026182;28;20042;-57
2022/12/11 01:42:41;;;;;;;127.85;26.10;;;-1.00;99.90;;;;;;5025348;28;20045;-58
2022/12/11 01:45:27;;;;;;;123.28;26.05;;;-0.90;99.90;;;;;;5025610;28;20451;-57
2022/12/11 01:48:02;;;;;;;109.15;24.13;;;-1.00;99.90;;;;;;5024818;28;20045;-57
2022/12/11 01:50:28;;;;;;;;;;;-0.90;99.90;;;;;;5020978;28;20037;-58
2022/12/11 01:52:54;;;;;;;107.38;23.40;;;-0.90;99.90;;;;;;5025823;28;19917;-58
2022/12/11 01:55:20;;;;;;;113.47;24.33;;;-0.90;99.90;;;;;;5024488;28;20050;-57
2022/12/11 01:57:49;;;;;;;99.68;23.00;;;-0.90;99.90;;;;;;5024576;28;20068;-59
2022/12/11 02:00:15;;;;;;;139.52;25.60;;;-0.90;99.90;;;;;;5023417;28;20395;-57
2022/12/11 02:02:41;;;;;;;142.00;26.00;;;-0.90;99.90;;;;;;5024395;28;20046;-58
2022/12/11 02:05:07;;;;;;;135.27;25.00;;;-0.80;99.90;;;;;;5023569;28;20045;-58
2022/12/11 02:07:40;;;;;;;118.65;24.98;;;-0.80;99.90;;;;;;5024384;28;20115;-58
2022/12/11 02:10:07;;;;;;;120.57;24.85;;;-0.80;99.90;;;;;;5026098;28;20103;-55
2022/12/11 02:12:53;;;;;;;103.82;23.35;;;-0.80;99.90;;;;;;5023057;28;20051;-57
2022/12/11 02:15:21;;;;;;;134.18;28.02;;;-0.80;99.90;;;;;;5026488;28;20124;-57
2022/12/11 02:17:59;;;;;;;124.13;27.77;;;-0.80;99.90;;;;;;5024560;28;20536;-56
2022/12/11 02:20:48;;;;;;;148.15;27.15;;;-0.80;99.90;;;;;;5019180;28;20191;-55
2022/12/11 02:23:14;;;;;;;144.50;27.38;;;-0.70;99.90;;;;;;5031219;28;20053;-58
2022/12/11 02:26:17;;;;;;;112.97;25.38;;;-0.70;99.90;;;;;;5024828;28;20029;-58
2022/12/11 02:28:48;;;;;;;118.50;25.95;;;-0.70;99.90;;;;;;5025740;28;20041;-57
2022/12/11 02:31:26;;;;;;;141.07;25.75;;;-0.70;99.90;;;;;;5025610;28;20041;-58
2022/12/11 02:33:57;;;;;;;118.85;24.98;;;-0.70;99.90;;;;;;5013217;28;20037;-58
2022/12/11 02:36:27;;;;;;;121.13;25.48;;;-0.70;99.90;;;;;;5024895;28;20125;-57
2022/12/11 02:38:55;;;;;;;135.82;27.08;;;-0.70;99.90;;;;;;5023461;28;20138;-57
2022/12/11 02:41:26;;;;;;;136.40;27.13;;;-0.70;99.90;;;;;;5025155;28;20087;-56
2022/12/11 02:43:55;;;;;;;140.95;28.00;;;-0.70;99.90;;;;;;5024974;28;20129;-58
2022/12/11 02:46:22;;;;;;;149.57;27.85;;;-0.70;99.90;;;;;;5022432;28;20400;-58
2022/12/11 02:48:50;;;;;;;140.68;27.58;;;-0.70;99.90;;;;;;5023778;28;20037;-56
2022/12/11 02:51:18;;;;;;;105.68;23.80;;;-0.70;99.90;;;;;;5022116;28;20050;-56
2022/12/11 02:53:45;;;;;;;104.72;24.65;;;-0.70;99.90;;;;;;5024049;28;20752;-58
2022/12/11 02:56:23;;;;;;;124.05;26.25;;;-0.70;99.90;;;;;;5023526;28;20049;-57
2022/12/11 02:58:55;;;;;;;119.45;23.83;;;-0.60;99.90;;;;;;5024009;28;20059;-55
2022/12/11 03:01:21;;;;;;;131.45;27.50;;;-0.60;99.90;;;;;;5023915;28;20055;-59
2022/12/11 03:03:47;;;;;;;124.63;26.92;;;-0.60;99.90;;;;;;5023780;28;20045;-58
2022/12/11 03:06:17;;;;;;;127.85;26.95;;;-0.60;99.90;;;;;;5024693;28;20052;-59
2022/12/11 03:08:43;;;;;;;94.68;22.83;;;-0.60;99.90;;;;;;5022603;28;20044;-55
2022/12/11 03:11:10;;;;;;;101.35;23.02;;;-0.60;99.90;;;;;;5025673;28;20115;-55
2022/12/11 03:13:37;;;;;;;91.60;24.52;;;-0.60;99.90;;;;;;5024914;28;20049;-59
2022/12/11 03:16:30;;;;;;;92.32;22.13;;;-0.60;99.90;;;;;;5023403;28;20412;-55
2022/12/11 03:19:13;;;;;;;129.50;26.08;;;-0.60;99.90;;;;;;5022527;28;20052;-56
2022/12/11 03:21:52;;;;;;;117.45;25.23;;;-0.60;99.90;;;;;;5024730;28;20071;-55
2022/12/11 03:24:29;;;;;;;100.75;23.55;;;-0.60;99.90;;;;;;5024677;28;20060;-55
2022/12/11 03:27:02;;;;;;;122.72;26.02;;;-0.60;99.90;;;;;;5023547;28;20068;-56
2022/12/11 03:29:38;;;;;;;137.48;25.77;;;-0.50;99.90;;;;;;5024833;28;20116;-56
2022/12/11 03:32:11;;;;;;;126.07;24.40;;;-0.50;99.90;;;;;;5019545;28;20074;-60
2022/12/11 03:34:42;;;;;;;93.28;23.23;;;-0.50;99.90;;;;;;5019735;28;20037;-53
2022/12/11 03:37:09;;;;;;;110.65;23.90;;;-0.50;99.90;;;;;;5022283;28;20108;-56
2022/12/11 03:39:40;;;;;;;103.32;23.08;;;-0.50;99.90;;;;;;5024584;28;20084;-56
2022/12/11 03:42:10;;;;;;;113.65;23.98;;;-0.50;99.90;;;;;;5024110;28;20570;-58
2022/12/11 03:44:36;;;;;;;94.97;22.65;;;-0.50;99.90;;;;;;5021597;28;20041;-56
2022/12/11 03:47:05;;;;;;;120.03;25.67;;;-0.50;99.90;;;;;;5023107;28;20045;-56
2022/12/11 03:49:37;;;;;;;117.80;24.70;;;-0.50;99.90;;;;;;5023221;28;20044;-56
2022/12/11 03:52:05;;;;;;;111.97;24.63;;;-0.50;99.90;;;;;;5023086;28;20128;-56
2022/12/11 03:54:31;;;;;;;109.43;23.55;;;-0.50;99.90;;;;;;5022210;28;20052;-56
2022/12/11 03:57:00;;;;;;;117.13;23.05;;;-0.50;99.90;;;;;;5022864;28;20064;-56
2022/12/11 03:59:26;;;;;;;108.97;23.67;;;-0.50;99.90;;;;;;5022682;28;20230;-55
2022/12/11 04:01:52;;;;;;;127.03;24.02;;;-0.50;99.90;;;;;;5024079;28;20048;-56
2022/12/11 04:04:18;;;;;;;130.18;24.08;;;-0.50;99.90;;;;;;5021504;28;20737;-56
2022/12/11 04:06:44;;;;;;;120.90;25.58;;;-0.50;99.90;;;;;;5023858;28;20041;-56
2022/12/11 04:09:10;;;;;;;106.13;23.77;;;-0.50;99.90;;;;;;5022967;28;20045;-54
2022/12/11 04:11:35;;;;;;;156.05;27.00;;;-0.50;99.90;;;;;;5014047;28;20040;-56
2022/12/11 04:16:48;;;;;;;133.65;26.27;;;-0.50;99.90;;;;;;5023934;28;20088;-54
2022/12/11 04:24:43;;;;;;;120.95;25.33;;;-0.50;99.90;;;;;;5023602;28;20111;-56
2022/12/11 04:27:11;;;;;;;129.85;25.73;;;-0.50;99.90;;;;;;5024465;28;20439;-57
2022/12/11 04:29:37;;;;;;;124.00;24.75;;;-0.50;99.90;;;;;;5024542;28;20053;-55
2022/12/11 04:32:03;;;;;;;127.93;25.75;;;-0.50;99.90;;;;;;5027663;28;20393;-54
2022/12/11 04:34:29;;;;;;;121.45;23.85;;;-0.40;99.90;;;;;;5041349;28;20060;-56
2022/12/11 04:36:54;;;;;;;106.68;23.75;;;-0.40;99.90;;;;;;5026891;28;20072;-56
2022/12/11 04:39:20;;;;;;;106.20;24.75;;;-0.40;99.90;;;;;;5027587;28;20043;-55
2022/12/11 04:41:46;;;;;;;116.07;25.83;;;-0.40;99.90;;;;;;5027515;28;20125;-56
2022/12/11 04:44:12;;;;;;;114.45;25.83;;;-0.40;99.90;;;;;;5027093;28;20045;-54
2022/12/11 04:46:37;;;;;;;110.90;24.33;;;-0.40;99.90;;;;;;5027110;28;20161;-53
2022/12/11 04:49:03;;;;;;;102.18;24.85;;;-0.40;99.90;;;;;;5025299;28;20189;-54
2022/12/11 04:51:29;;;;;;;120.80;24.85;;;-0.40;99.90;;;;;;5026824;28;20048;-54
2022/12/11 04:53:54;;;;;;;110.07;24.63;;;-0.40;99.90;;;;;;5026601;28;20539;-55
2022/12/11 04:56:20;;;;;;;122.70;25.58;;;-0.40;99.90;;;;;;5026382;28;20135;-57
2022/12/11 04:58:47;;;;;;;119.28;25.30;;;-0.40;99.90;;;;;;5025886;28;20540;-54
2022/12/11 05:01:15;;;;;;;128.77;27.73;;;-0.40;99.90;;;;;;5027320;28;20068;-54
2022/12/11 05:03:41;;;;;;;130.43;27.83;;;-0.40;99.90;;;;;;5026461;28;20064;-55
2022/12/11 05:06:09;;;;;;;121.93;25.23;;;-0.40;99.90;;;;;;5010991;28;20088;-56
2022/12/11 05:08:36;;;;;;;137.90;28.10;;;-0.40;99.90;;;;;;5026107;28;20038;-56
2022/12/11 05:11:05;;;;;;;136.18;25.30;;;-0.40;99.90;;;;;;5042626;28;20042;-56
2022/12/11 05:13:31;;;;;;;139.73;26.55;;;-0.40;99.90;;;;;;5025635;28;20045;-55
2022/12/11 05:15:58;;;;;;;135.80;26.17;;;-0.40;99.90;;;;;;5025701;28;20045;-55
2022/12/11 05:18:25;;;;;;;136.40;26.55;;;-0.40;99.90;;;;;;5027227;28;20044;-56
2022/12/11 05:20:59;;;;;;;116.25;24.70;;;-0.40;99.90;;;;;;5007720;28;20037;-55
2022/12/11 05:23:25;;;;;;;105.63;24.67;;;-0.40;99.90;;;;;;5026706;28;20057;-55
2022/12/11 05:25:56;;;;;;;98.30;25.42;;;-0.40;99.90;;;;;;5027461;28;20041;-56
2022/12/11 05:28:23;;;;;;;116.40;25.08;;;-0.30;99.90;;;;;;5026303;28;20058;-55
2022/12/11 05:31:02;;;;;;;103.70;25.10;;;-0.30;99.90;;;;;;5025166;28;20110;-56
2022/12/11 05:33:29;;;;;;;107.80;24.85;;;-0.30;99.90;;;;;;5025553;28;20045;-54
2022/12/11 05:35:55;;;;;;;98.60;24.00;;;-0.30;99.90;;;;;;5025941;28;20053;-56
2022/12/11 05:38:21;;;;;;;99.88;25.00;;;-0.30;99.90;;;;;;5025061;28;20742;-56
2022/12/11 05:41:05;;;;;;;103.53;25.88;;;-0.30;99.90;;;;;;5026833;28;20481;-55
2022/12/11 05:43:33;;;;;;;103.83;24.47;;;-0.30;99.90;;;;;;5023521;28;20385;-56
2022/12/11 05:46:15;;;;;;;107.28;24.38;;;-0.30;99.90;;;;;;5026673;28;20041;-55
2022/12/11 05:48:42;;;;;;;114.00;25.45;;;-0.30;99.90;;;;;;5014204;28;20504;-55
2022/12/11 05:51:08;;;;;;;84.53;21.17;;;-0.30;99.90;;;;;;5025958;28;20665;-56
2022/12/11 05:53:36;;;;;;;112.78;24.38;;;-0.30;99.90;;;;;;5008477;28;20529;-56
2022/12/11 05:56:13;;;;;;;97.10;26.05;;;-0.30;99.90;;;;;;5027007;28;20053;-56
2022/12/11 05:58:41;;;;;;;100.00;25.50;;;-0.30;99.90;;;;;;5024707;28;20492;-56
2022/12/11 06:01:12;;;;;;;101.70;24.10;;;-0.30;99.90;;;;;;5025198;28;20512;-56
2022/12/11 06:03:38;;;;;;;100.65;24.15;;;-0.30;99.90;;;;;;5026514;28;20110;-55
2022/12/11 06:06:05;;;;;;;100.70;25.27;;;-0.30;99.90;;;;;;5025235;28;20372;-53
2022/12/11 06:08:31;;;;;;;107.28;23.95;;;-0.30;99.90;;;;;;5024791;28;20041;-55
2022/12/11 06:10:57;;;;;;;92.45;23.77;;;-0.30;99.90;;;;;;5025496;28;20335;-56
2022/12/11 06:13:23;;;;;;;106.43;24.48;;;-0.30;99.90;;;;;;5025686;28;20575;-56
2022/12/11 06:15:49;;;;;;;90.80;23.05;;;-0.20;99.90;;;;;;5026147;28;20049;-55
2022/12/11 06:18:15;;;;;;;104.78;24.52;;;-0.30;99.90;;;;;;5025085;28;20403;-54
2022/12/11 06:20:41;;;;;;;100.32;24.52;;;-0.30;99.90;;;;;;5024599;28;20045;-54
2022/12/11 06:23:07;;;;;;;106.38;25.20;;;-0.30;99.90;;;;;;5025472;28;20049;-53
2022/12/11 06:25:33;;;;;;;93.93;24.40;;;-0.30;99.90;;;;;;5025911;28;20069;-55
2022/12/11 06:27:59;;;;;;;102.78;25.25;;;-0.20;99.90;;;;;;5024524;28;20516;-55
2022/12/11 06:30:25;;;;;;;92.25;23.30;;;-0.20;99.90;;;;;;5024097;28;20037;-56
2022/12/11 06:32:50;;;;;;;93.70;23.60;;;-0.20;99.90;;;;;;5023419;28;20069;-55
2022/12/11 06:35:16;;;;;;;90.30;23.88;;;-0.20;99.90;;;;;;5024823;28;20081;-56
2022/12/11 06:37:42;;;;;;;78.65;21.83;;;-0.30;99.90;;;;;;5025624;28;20045;-54
2022/12/11 06:40:10;;;;;;;90.43;23.58;;;-0.30;99.90;;;;;;5026234;28;20041;-55
2022/12/11 06:42:36;;;;;;;101.72;24.25;;;-0.20;99.90;;;;;;5024380;28;20045;-56
2022/12/11 06:45:03;;;;;;;103.32;23.27;;;-0.30;99.90;;;;;;5023699;28;20111;-56
2022/12/11 06:47:29;;;;;;;101.90;24.17;;;-0.20;99.90;;;;;;5023363;28;20041;-51
2022/12/11 06:49:56;;;;;;;96.95;23.70;;;-0.20;99.90;;;;;;5024461;28;20033;-56
2022/12/11 06:52:23;;;;;;;95.20;24.45;;;-0.20;99.90;;;;;;5024782;28;20109;-53
2022/12/11 06:54:49;;;;;;;96.65;23.27;;;-0.20;99.90;;;;;;5025274;28;20056;-54
2022/12/11 06:57:16;;;;;;;99.78;22.88;;;-0.20;99.90;;;;;;5024477;28;20136;-55
2022/12/11 06:59:42;;;;;;;104.20;24.58;;;-0.20;99.90;;;;;;5039304;28;20084;-55
2022/12/11 07:02:13;;;;;;;104.47;24.90;;;-0.20;99.90;;;;;;5023863;28;20095;-56
2022/12/11 07:04:39;;;;;;;97.82;22.60;;;-0.20;99.90;;;;;;5024150;28;20053;-56
2022/12/11 07:07:05;;;;;;;82.45;21.98;;;-0.20;99.90;;;;;;5024364;28;20115;-55
2022/12/11 07:09:32;;;;;;;92.18;21.65;;;-0.20;99.90;;;;;;5024716;28;20385;-54
2022/12/11 07:11:57;;;;;;;93.88;22.85;;;-0.20;99.90;;;;;;5024822;28;20065;-55
2022/12/11 07:14:23;;;;;;;89.63;22.23;;;-0.20;99.90;;;;;;5022990;28;20033;-55
2022/12/11 07:16:49;;;;;;;91.95;22.73;;;-0.20;99.90;;;;;;5039995;28;20045;-56
2022/12/11 07:19:15;;;;;;;91.45;22.08;;;-0.20;99.90;;;;;;5024228;28;20041;-56
2022/12/11 07:21:41;;;;;;;94.50;22.80;;;-0.20;99.90;;;;;;5021883;28;20100;-55
2022/12/11 07:24:07;;;;;;;87.35;22.17;;;-0.20;99.90;;;;;;5024028;28;20079;-55
2022/12/11 07:26:33;;;;;;;85.00;23.23;;;-0.20;99.90;;;;;;5024001;28;20107;-54
2022/12/11 07:29:00;;;;;;;97.90;22.20;;;-0.20;99.90;;;;;;5024507;28;20424;-54
2022/12/11 07:31:27;;;;;;;112.05;23.92;;;-0.20;99.90;;;;;;5024880;28;20045;-56
2022/12/11 07:33:59;;;;;;;102.85;22.73;;;-0.20;99.90;;;;;;5024010;28;20049;-54
2022/12/11 07:36:25;;;;;;;91.43;23.33;;;-0.20;99.90;;;;;;5012211;28;20037;-56
2022/12/11 07:38:51;;;;;;;90.85;22.55;;;-0.20;99.90;;;;;;5023671;28;20485;-54
2022/12/11 07:41:17;;;;;;;100.35;23.60;;;-0.20;99.90;;;;;;5024392;28;20388;-56
2022/12/11 07:43:44;;;;;;;107.75;23.60;;;-0.20;99.90;;;;;;5021066;28;20048;-57
2022/12/11 07:46:15;;;;;;;123.35;24.88;;;-0.20;99.90;;;;;;5022169;28;20037;-56
2022/12/11 07:48:43;;;;;;;101.63;24.52;;;-0.20;99.90;;;;;;5008172;28;20041;-57
2022/12/11 07:51:14;;;;;;;116.00;27.17;;;-0.20;99.90;;;;;;5022886;28;20064;-57
2022/12/11 07:53:45;;;;;;;109.50;25.38;;;-0.20;99.90;;;;;;5023051;28;20255;-56
2022/12/11 07:56:12;;;;;;;112.15;26.60;;;-0.20;99.90;;;;;;5023998;28;20056;-56
2022/12/11 07:58:37;;;;;;;105.60;27.42;;;-0.20;99.90;;;;;;5023841;28;20136;-56
2022/12/11 08:01:05;;;;;;;119.35;27.23;;;-0.20;99.90;;;;;;5023897;28;20128;-57
2022/12/11 08:03:30;;;;;;;122.35;27.30;;;-0.20;99.90;;;;;;5022954;28;20064;-55
2022/12/11 08:05:56;;;;;;;106.38;24.42;;;-0.20;99.90;;;;;;5022994;28;20029;-57
2022/12/11 08:08:22;;;;;;;123.15;24.92;;;-0.20;99.90;;;;;;5022972;28;20410;-57
2022/12/11 08:10:47;;;;;;;97.90;23.90;;;-0.20;99.90;;;;;;5023820;28;20064;-56
2022/12/11 08:13:14;;;;;;;109.45;23.67;;;-0.20;99.90;;;;;;5022218;28;20045;-56
2022/12/11 08:15:42;;;;;;;101.47;23.05;;;-0.20;99.90;;;;;;5023045;28;20536;-54
2022/12/11 08:18:08;;;;;;;101.13;22.63;;;-0.20;99.90;;;;;;5022332;28;20101;-57
2022/12/11 08:20:38;;;;;;;121.03;24.13;;;-0.20;99.90;;;;;;5022972;28;20088;-56
2022/12/11 08:23:03;;;;;;;94.97;23.25;;;-0.20;99.90;;;;;;5023412;28;20122;-56
2022/12/11 08:25:29;;;;;;;111.80;23.55;;;-0.20;99.90;;;;;;5018699;28;20452;-56
2022/12/11 08:27:55;;;;;;;109.07;22.48;;;-0.20;99.90;;;;;;5036018;28;20041;-55
2022/12/11 08:30:20;;;;;;;91.47;22.60;;;-0.20;99.90;;;;;;5036644;28;20033;-55
2022/12/11 08:32:46;;;;;;;105.50;22.25;;;-0.20;99.90;;;;;;5021036;28;20038;-56
2022/12/11 08:35:12;;;;;;;100.47;24.23;;;-0.20;99.90;;;;;;5021574;28;20404;-55
2022/12/11 08:37:39;;;;;;;95.30;22.83;;;-0.20;99.90;;;;;;5020885;28;20076;-54
2022/12/11 08:40:05;;;;;;;129.63;23.85;;;-0.20;99.90;;;;;;5019344;28;21359;-57
2022/12/11 08:42:31;;;;;;;110.57;23.50;;;-0.20;99.90;;;;;;5019133;28;20069;-57
2022/12/11 08:44:57;;;;;;;107.60;23.33;;;-0.20;99.90;;;;;;5036402;28;20528;-55
2022/12/11 08:47:22;;;;;;;96.28;23.23;;;-0.20;99.90;;;;;;5020252;28;20409;-56
2022/12/11 08:49:48;;;;;;;100.80;23.55;;;-0.20;99.90;;;;;;5019874;28;20170;-56
2022/12/11 08:52:14;;;;;;;108.07;24.13;;;-0.20;99.90;;;;;;5021261;28;20053;-57
2022/12/11 08:54:40;;;;;;;110.53;25.30;;;-0.20;99.90;;;;;;5021430;28;20121;-57
2022/12/11 08:57:06;;;;;;;113.75;26.23;;;-0.20;99.90;;;;;;5021871;28;20408;-55
2022/12/11 08:59:32;;;;;;;132.73;27.45;;;-0.20;99.90;;;;;;5020744;28;20045;-57
2022/12/11 09:01:57;;;;;;;123.78;26.98;;;-0.20;99.90;;;;;;5020701;28;20053;-57
2022/12/11 09:04:26;;;;;;;126.38;28.83;;;-0.20;99.90;;;;;;5022375;28;20041;-55
2022/12/11 09:06:52;;;;;;;113.93;25.88;;;-0.20;99.90;;;;;;5021289;28;20049;-57
2022/12/11 09:09:18;;;;;;;122.70;25.77;;;-0.10;99.90;;;;;;5021444;28;20150;-55
2022/12/11 09:11:43;;;;;;;132.95;27.20;;;-0.10;99.90;;;;;;5023323;28;20037;-56
2022/12/11 09:14:09;;;;;;;128.85;26.95;;;-0.10;99.90;;;;;;5022992;28;20045;-55
2022/12/11 09:16:39;;;;;;;118.38;26.77;;;-0.10;99.90;;;;;;5023346;28;20485;-56
2022/12/11 09:19:06;;;;;;;121.20;29.17;;;-0.10;99.90;;;;;;5010682;28;20046;-53
2022/12/11 09:21:32;;;;;;;122.63;28.30;;;-0.10;99.90;;;;;;5023569;28;20128;-56
2022/12/11 09:23:59;;;;;;;135.73;26.55;;;-0.10;99.90;;;;;;5026381;28;20128;-57
2022/12/11 09:26:26;;;;;;;120.70;27.20;;;-0.10;99.90;;;;;;5041589;28;20096;-56
2022/12/11 09:28:52;;;;;;;121.32;25.83;;;-0.10;99.90;;;;;;5024657;28;20375;-55
2022/12/11 09:31:24;;;;;;;119.07;24.38;;;-0.10;99.90;;;;;;5025788;28;20073;-55
2022/12/11 09:33:52;;;;;;;107.70;25.02;;;-0.10;99.90;;;;;;5025283;28;20056;-57
2022/12/11 09:36:18;;;;;;;132.10;26.35;;;-0.10;99.90;;;;;;5025140;28;20554;-56
2022/12/11 09:38:44;;;;;;;138.25;26.48;;;-0.10;99.90;;;;;;5025619;28;20044;-57
2022/12/11 09:41:22;;;;;;;126.70;24.88;;;-0.10;99.90;;;;;;5025954;28;20103;-57
2022/12/11 09:44:14;;;;;;;107.28;25.80;;;0.00;99.90;;;;;;5023261;28;20408;-57
2022/12/11 09:46:40;;;;;;;113.28;25.73;;;0.00;99.90;;;;;;5024489;28;20535;-57
2022/12/11 09:49:37;;;;;;;110.82;25.38;;;0.00;99.90;;;;;;5024068;28;20042;-57
2022/12/11 09:52:20;;;;;;;113.10;25.88;;;0.00;99.90;;;;;;5024925;28;20084;-57
2022/12/11 09:54:56;;;;;;;122.20;25.67;;;0.00;99.90;;;;;;5026160;28;20045;-56
2022/12/11 09:57:56;;;;;;;132.73;25.63;;;0.00;99.90;;;;;;5016352;28;20037;-58
2022/12/11 10:00:50;;;;;;;123.78;27.02;;;0.00;99.90;;;;;;5003344;28;20041;-56
2022/12/11 10:03:25;;;;;;;118.45;24.50;;;0.00;99.90;;;;;;4975483;28;20541;-57
2022/12/11 10:06:02;;;;;;;115.38;25.35;;;0.00;99.90;;;;;;5003631;28;20100;-57
2022/12/11 10:08:58;;;;;;;121.07;26.50;;;0.10;99.90;;;;;;5002433;28;20042;-57
2022/12/11 10:11:45;;;;;;;117.28;26.73;;;0.10;99.90;;;;;;5003682;28;20046;-55
2022/12/11 10:14:22;;;;;;;118.28;25.35;;;0.10;99.90;;;;;;5003934;28;20037;-57
2022/12/11 10:16:53;;;;;;;120.75;27.42;;;0.10;99.90;;;;;;5003563;28;20132;-59
2022/12/11 10:19:23;;;;;;;116.47;27.15;;;0.10;99.90;;;;;;5003070;28;20211;-58
2022/12/11 10:21:50;;;;;;;124.75;26.80;;;0.10;99.90;;;;;;5002497;28;20048;-58
2022/12/11 10:24:28;;;;;;;106.22;26.80;;;0.10;99.90;;;;;;5005680;28;20045;-56
2022/12/11 10:26:58;;;;;;;125.20;26.80;;;0.10;99.90;;;;;;5005872;28;20084;-57
2022/12/11 10:29:24;;;;;;;119.90;27.58;;;0.10;99.90;;;;;;5002048;28;20046;-59
2022/12/11 10:31:57;;;;;;;105.43;26.60;;;0.10;99.90;;;;;;5000976;28;20573;-57
2022/12/11 10:34:34;;;;;;;98.45;26.63;;;0.10;99.90;;;;;;5005314;28;20159;-57
2022/12/11 10:37:01;;;;;;;114.82;27.15;;;0.10;99.90;;;;;;5018762;28;20045;-58
2022/12/11 10:39:27;;;;;;;114.40;24.38;;;0.20;99.90;;;;;;5004031;28;20520;-55
2022/12/11 10:41:54;;;;;;;115.18;25.63;;;0.20;99.90;;;;;;5003160;28;20290;-57
2022/12/11 10:44:24;;;;;;;107.90;24.70;;;0.20;99.90;;;;;;5001385;28;20638;-58
2022/12/11 10:47:13;;;;;;;120.55;25.55;;;0.20;99.90;;;;;;5003895;28;20642;-58
2022/12/11 10:49:50;;;;;;;103.28;26.08;;;0.20;99.90;;;;;;5004114;28;20133;-59
2022/12/11 10:52:22;;;;;;;105.78;25.48;;;0.20;99.90;;;;;;5004063;28;20466;-58
2022/12/11 10:54:57;;;;;;;109.82;26.17;;;0.20;99.90;;;;;;5008560;28;20049;-58
2022/12/11 10:57:29;;;;;;;120.68;28.10;;;0.20;99.90;;;;;;5007257;28;20115;-58
2022/12/11 10:59:56;;;;;;;114.70;26.27;;;0.20;99.90;;;;;;5028606;28;20072;-58
2022/12/11 11:02:26;;;;;;;130.45;27.85;;;0.20;99.90;;;;;;5008622;28;20060;-56
2022/12/11 11:04:54;;;;;;;105.72;25.08;;;0.20;99.90;;;;;;5008238;28;20042;-57
2022/12/11 11:07:28;;;;;;;98.85;26.60;;;0.20;99.90;;;;;;5007757;28;20049;-59
2022/12/11 11:10:09;;;;;;;;;;;0.20;99.90;;;;;;5006002;28;20049;-58
2022/12/11 11:12:46;;;;;;;107.93;25.15;;;0.20;99.90;;;;;;5021233;28;19926;-58
2022/12/11 11:15:16;;;;;;;107.88;26.48;;;0.20;99.90;;;;;;5004526;28;20045;-57
2022/12/11 11:17:47;;;;;;;100.78;26.75;;;0.20;99.90;;;;;;5020714;28;20073;-58
2022/12/11 11:20:16;;;;;;;100.60;26.33;;;0.20;99.90;;;;;;5003766;28;20092;-58
2022/12/11 11:22:46;;;;;;;108.03;25.25;;;0.20;99.90;;;;;;5014254;28;20068;-57
2022/12/11 11:25:20;;;;;;;96.80;24.95;;;0.30;99.90;;;;;;5020621;28;20053;-56
2022/12/11 11:28:05;;;;;;;;;;;0.30;99.90;;;;;;5023288;28;20041;-58
2022/12/11 11:30:34;;;;;;;99.30;25.42;;;0.30;99.90;;;;;;5035257;28;19959;-58
2022/12/11 11:33:11;;;;;;;107.40;26.45;;;0.30;99.90;;;;;;5022178;28;20121;-58
2022/12/11 11:35:37;;;;;;;111.45;25.98;;;0.30;99.90;;;;;;5019594;28;20053;-58
2022/12/11 11:38:04;;;;;;;108.95;25.80;;;0.30;99.90;;;;;;5020259;28;20050;-55
2022/12/11 11:40:44;;;;;;;106.35;27.27;;;0.30;99.90;;;;;;5036442;28;20152;-58
2022/12/11 11:43:29;;;;;;;114.53;27.60;;;0.30;99.90;;;;;;5012842;28;20048;-57
2022/12/11 11:46:02;;;;;;;120.65;27.20;;;0.30;99.90;;;;;;5021911;28;20048;-56
2022/12/11 11:48:57;;;;;;;136.75;31.17;;;0.30;99.90;;;;;;5020945;28;20452;-57
2022/12/11 11:52:00;;;;;;;98.18;25.75;;;0.30;99.90;;;;;;5021265;28;20136;-57
2022/12/11 11:54:49;;;;;;;108.43;27.77;;;0.30;99.90;;;;;;5012060;28;20056;-57
2022/12/11 11:57:38;;;;;;;115.80;27.10;;;0.30;99.90;;;;;;5020947;28;20077;-58
2022/12/11 12:00:19;;;;;;;107.30;27.45;;;0.30;99.90;;;;;;4987951;28;20057;-57
2022/12/11 12:02:47;;;;;;;114.72;26.80;;;0.30;99.90;;;;;;5010812;28;20755;-57
2022/12/11 12:05:14;;;;;;;98.82;25.88;;;0.30;99.90;;;;;;5020860;28;20625;-58
2022/12/11 12:08:06;;;;;;;115.13;27.58;;;0.30;99.90;;;;;;5020954;28;20145;-57
2022/12/11 12:10:46;;;;;;;102.90;26.42;;;0.30;99.90;;;;;;5020084;28;20063;-57
2022/12/11 12:13:17;;;;;;;103.03;27.10;;;0.30;99.90;;;;;;5016304;28;20486;-57
2022/12/11 12:16:10;;;;;;;106.80;27.27;;;0.30;99.90;;;;;;5016446;28;20079;-57
2022/12/11 12:18:57;;;;;;;117.47;26.25;;;0.30;99.90;;;;;;5010760;28;20536;-57
2022/12/11 12:21:34;;;;;;;101.55;25.80;;;0.30;99.90;;;;;;5019657;28;20060;-57
2022/12/11 12:24:18;;;;;;;106.78;28.33;;;0.30;99.90;;;;;;5035909;28;20053;-58
2022/12/11 12:26:52;;;;;;;104.78;26.00;;;0.30;99.90;;;;;;5018947;28;20046;-56
2022/12/11 12:29:47;;;;;;;107.53;26.17;;;0.30;99.90;;;;;;5035081;28;20063;-58
2022/12/11 12:32:48;;;;;;;100.50;26.70;;;0.30;99.90;;;;;;5015627;28;20041;-56
2022/12/11 12:35:34;;;;;;;102.20;24.98;;;0.30;99.90;;;;;;5018211;28;20059;-58
2022/12/11 12:38:10;;;;;;;103.75;26.38;;;0.30;99.90;;;;;;5017540;28;20037;-58
2022/12/11 12:41:01;;;;;;;94.18;26.95;;;0.30;99.90;;;;;;5018080;28;20052;-58
2022/12/11 12:43:54;;;;;;;108.47;27.30;;;0.30;99.90;;;;;;5015803;28;20083;-57
2022/12/11 12:47:13;;;;;;;103.40;26.20;;;0.30;99.90;;;;;;5014737;28;20026;-59